Orbital elements of ORBCOMM FM33
| Launched | 3 December 1999 |
| Flight ended | – |
| Launch site | Eastern Range Airspace |
| Owner | ORBCOMM |
| NORAD ID | 25983 |
| Alternative names |
SLOT D5 |
| Date fetched |
Epoch osculation |
Inc. [°] |
Ecc. | RA asc node [hr] |
Arg Peri. [°] |
Mean anom [°] |
Mean motion [rev/day] |
Abs. mag |
| Date fetched |
Epoch osculation |
Inc. [°] |
Ecc. | RA asc node [hr] |
Arg Peri. [°] |
Mean anom [°] |
Mean motion [rev/day] |
Abs. mag |
| 2026 May 03 17:57 | 2026 Apr 30 14:29:48 | 45.0289 | 0.00088 | 19.2512 | 216.1677 | 143.8575 | 14.40898 | 9.243 |
| 2026 May 02 17:57 | 2026 Apr 30 14:29:48 | 45.0289 | 0.00088 | 19.2512 | 216.1677 | 143.8575 | 14.40898 | 9.243 |
| 2026 May 01 17:56 | 2026 Apr 30 14:29:48 | 45.0289 | 0.00088 | 19.2512 | 216.1677 | 143.8575 | 14.40898 | 9.243 |
| 2026 Apr 30 17:56 | 2026 Apr 30 14:29:48 | 45.0289 | 0.00088 | 19.2512 | 216.1677 | 143.8575 | 14.40898 | 9.243 |
| 2026 Apr 29 17:57 | 2026 Apr 24 12:03:48 | 45.0293 | 0.00083 | 21.1879 | 186.7229 | 143.8575 | 14.40898 | 9.243 |
| 2026 Apr 28 17:56 | 2026 Apr 24 12:03:48 | 45.0293 | 0.00083 | 21.1879 | 186.7229 | 143.8575 | 14.40898 | 9.243 |
| 2026 Apr 27 17:58 | 2026 Apr 24 12:03:48 | 45.0293 | 0.00083 | 21.1879 | 186.7229 | 143.8575 | 14.40898 | 9.243 |
| 2026 Apr 26 17:58 | 2026 Apr 24 12:03:48 | 45.0293 | 0.00083 | 21.1879 | 186.7229 | 143.8575 | 14.40898 | 9.243 |
| 2026 Apr 25 17:58 | 2026 Apr 24 12:03:48 | 45.0293 | 0.00083 | 21.1879 | 186.7229 | 143.8575 | 14.40898 | 9.243 |
| 2026 Apr 24 17:59 | 2026 Apr 24 12:03:48 | 45.0293 | 0.00083 | 21.1879 | 186.7229 | 143.8575 | 14.40898 | 9.243 |
| 2026 Apr 23 17:57 | 2026 Apr 19 08:55:30 | 45.0298 | 0.00078 | 22.8164 | 160.6709 | 143.8575 | 14.40898 | 9.243 |
| 2026 Apr 22 17:57 | 2026 Apr 19 08:55:30 | 45.0298 | 0.00078 | 22.8164 | 160.6709 | 143.8575 | 14.40898 | 9.243 |
| 2026 Apr 21 17:57 | 2026 Apr 19 08:55:30 | 45.0298 | 0.00078 | 22.8164 | 160.6709 | 143.8575 | 14.40898 | 9.243 |
| 2026 Apr 20 17:57 | 2026 Apr 19 08:55:30 | 45.0298 | 0.00078 | 22.8164 | 160.6709 | 143.8575 | 14.40898 | 9.243 |
| 2026 Apr 19 17:58 | 2026 Apr 19 08:55:30 | 45.0298 | 0.00078 | 22.8164 | 160.6709 | 143.8575 | 14.40898 | 9.243 |
| 2026 Apr 18 17:56 | 2026 Apr 14 04:07:19 | 45.0300 | 0.00073 | 0.4669 | 133.0253 | 143.8575 | 14.40898 | 9.243 |
| 2026 Apr 16 17:57 | 2026 Apr 14 04:07:19 | 45.0300 | 0.00073 | 0.4669 | 133.0253 | 143.8575 | 14.40898 | 9.243 |
| 2026 Apr 14 17:57 | 2026 Apr 14 04:07:19 | 45.0300 | 0.00073 | 0.4669 | 133.0253 | 143.8575 | 14.40898 | 9.243 |
| 2026 Apr 13 17:57 | 2026 Apr 13 01:29:50 | 45.0301 | 0.00073 | 0.8190 | 126.9567 | 143.8575 | 14.40898 | 9.243 |
| 2026 Apr 12 17:57 | 2026 Apr 12 10:31:15 | 45.0301 | 0.00072 | 1.0171 | 123.4969 | 143.8575 | 14.40898 | 9.243 |
| 2026 Apr 11 17:57 | 2026 Apr 11 11:13:27 | 45.0302 | 0.00071 | 1.3252 | 118.0938 | 143.8575 | 14.40898 | 9.243 |
| 2026 Apr 10 17:58 | 2026 Apr 10 05:16:17 | 45.0301 | 0.00071 | 1.7213 | 111.0333 | 143.8575 | 14.40898 | 9.243 |
| 2026 Apr 09 18:01 | 2026 Apr 09 04:18:38 | 45.0299 | 0.00070 | 2.0514 | 105.1590 | 143.8575 | 14.40898 | 9.243 |
| 2026 Apr 08 17:57 | 2026 Apr 08 03:20:59 | 45.0297 | 0.00070 | 2.3815 | 99.2761 | 143.8575 | 14.40898 | 9.243 |
| 2026 Apr 07 17:57 | 2026 Apr 07 02:23:20 | 45.0295 | 0.00070 | 2.7116 | 93.3726 | 143.8575 | 14.40898 | 9.243 |
| 2026 Apr 06 17:57 | 2026 Apr 06 04:45:22 | 45.0293 | 0.00069 | 2.9977 | 88.3360 | 143.8575 | 14.40898 | 9.243 |